sensor_id;sensor_type;location;lat;lon;timestamp;P1;durP1;ratioP1;P2;durP2;ratioP2
39242;SDS011;29823;47.404;8.566;2022-09-09T00:01:15;4.65;;;2.10;;
39242;SDS011;29823;47.404;8.566;2022-09-09T00:03:59;7.03;;;2.25;;
39242;SDS011;29823;47.404;8.566;2022-09-09T00:06:30;9.15;;;2.50;;
39242;SDS011;29823;47.404;8.566;2022-09-09T00:09:04;5.82;;;2.47;;
39242;SDS011;29823;47.404;8.566;2022-09-09T00:11:42;6.35;;;2.40;;
39242;SDS011;29823;47.404;8.566;2022-09-09T00:14:17;6.75;;;2.28;;
39242;SDS011;29823;47.404;8.566;2022-09-09T00:16:50;7.10;;;2.35;;
39242;SDS011;29823;47.404;8.566;2022-09-09T00:19:23;15.63;;;2.45;;
39242;SDS011;29823;47.404;8.566;2022-09-09T00:22:00;7.35;;;2.63;;
39242;SDS011;29823;47.404;8.566;2022-09-09T00:24:42;7.30;;;1.92;;
39242;SDS011;29823;47.404;8.566;2022-09-09T00:27:16;6.20;;;2.38;;
39242;SDS011;29823;47.404;8.566;2022-09-09T00:29:53;10.20;;;2.55;;
39242;SDS011;29823;47.404;8.566;2022-09-09T00:32:25;3.70;;;2.53;;
39242;SDS011;29823;47.404;8.566;2022-09-09T00:37:27;8.07;;;2.70;;
39242;SDS011;29823;47.404;8.566;2022-09-09T00:39:59;6.57;;;2.15;;
39242;SDS011;29823;47.404;8.566;2022-09-09T00:42:33;6.93;;;1.80;;
39242;SDS011;29823;47.404;8.566;2022-09-09T00:45:10;9.88;;;2.40;;
39242;SDS011;29823;47.404;8.566;2022-09-09T00:47:52;5.55;;;2.50;;
39242;SDS011;29823;47.404;8.566;2022-09-09T00:50:34;4.38;;;1.88;;
39242;SDS011;29823;47.404;8.566;2022-09-09T00:53:15;6.80;;;2.58;;
39242;SDS011;29823;47.404;8.566;2022-09-09T00:55:54;7.90;;;2.58;;
39242;SDS011;29823;47.404;8.566;2022-09-09T00:58:29;10.25;;;2.67;;
39242;SDS011;29823;47.404;8.566;2022-09-09T01:00:57;13.77;;;3.17;;
39242;SDS011;29823;47.404;8.566;2022-09-09T01:03:36;6.82;;;2.38;;
39242;SDS011;29823;47.404;8.566;2022-09-09T01:06:12;6.90;;;2.58;;
39242;SDS011;29823;47.404;8.566;2022-09-09T01:08:48;6.43;;;2.65;;
39242;SDS011;29823;47.404;8.566;2022-09-09T01:11:26;6.85;;;2.50;;
39242;SDS011;29823;47.404;8.566;2022-09-09T01:14:01;11.48;;;3.10;;
39242;SDS011;29823;47.404;8.566;2022-09-09T01:16:41;5.15;;;1.77;;
39242;SDS011;29823;47.404;8.566;2022-09-09T01:19:10;6.80;;;2.53;;
39242;SDS011;29823;47.404;8.566;2022-09-09T01:21:47;7.63;;;2.72;;
39242;SDS011;29823;47.404;8.566;2022-09-09T01:24:22;11.43;;;3.20;;
39242;SDS011;29823;47.404;8.566;2022-09-09T01:26:56;9.02;;;2.88;;
39242;SDS011;29823;47.404;8.566;2022-09-09T01:29:28;9.90;;;3.53;;
39242;SDS011;29823;47.404;8.566;2022-09-09T01:31:57;13.23;;;3.60;;
39242;SDS011;29823;47.404;8.566;2022-09-09T01:34:27;10.38;;;3.88;;
39242;SDS011;29823;47.404;8.566;2022-09-09T01:36:59;8.30;;;3.95;;
39242;SDS011;29823;47.404;8.566;2022-09-09T01:39:31;7.45;;;3.55;;
39242;SDS011;29823;47.404;8.566;2022-09-09T01:42:02;13.13;;;3.53;;
39242;SDS011;29823;47.404;8.566;2022-09-09T01:44:32;7.40;;;3.72;;
39242;SDS011;29823;47.404;8.566;2022-09-09T01:47:01;7.82;;;3.90;;
39242;SDS011;29823;47.404;8.566;2022-09-09T01:49:29;11.75;;;3.90;;
39242;SDS011;29823;47.404;8.566;2022-09-09T01:51:58;11.82;;;3.90;;
39242;SDS011;29823;47.404;8.566;2022-09-09T01:54:28;11.55;;;4.60;;
39242;SDS011;29823;47.404;8.566;2022-09-09T01:57:03;13.90;;;4.22;;
39242;SDS011;29823;47.404;8.566;2022-09-09T02:02:30;11.57;;;4.40;;
39242;SDS011;29823;47.404;8.566;2022-09-09T02:05:05;10.63;;;4.30;;
39242;SDS011;29823;47.404;8.566;2022-09-09T02:07:43;7.18;;;3.90;;
39242;SDS011;29823;47.404;8.566;2022-09-09T02:10:16;8.25;;;4.15;;
39242;SDS011;29823;47.404;8.566;2022-09-09T02:12:50;9.18;;;4.40;;
39242;SDS011;29823;47.404;8.566;2022-09-09T02:15:23;14.30;;;4.65;;
39242;SDS011;29823;47.404;8.566;2022-09-09T02:17:56;11.25;;;4.03;;
39242;SDS011;29823;47.404;8.566;2022-09-09T02:20:25;9.13;;;4.07;;
39242;SDS011;29823;47.404;8.566;2022-09-09T02:23:00;12.32;;;4.88;;
39242;SDS011;29823;47.404;8.566;2022-09-09T02:25:29;8.95;;;4.18;;
39242;SDS011;29823;47.404;8.566;2022-09-09T02:27:58;12.10;;;3.95;;
39242;SDS011;29823;47.404;8.566;2022-09-09T02:30:26;11.65;;;3.80;;
39242;SDS011;29823;47.404;8.566;2022-09-09T02:32:56;8.73;;;4.03;;
39242;SDS011;29823;47.404;8.566;2022-09-09T02:35:27;11.13;;;4.00;;
39242;SDS011;29823;47.404;8.566;2022-09-09T02:37:58;7.47;;;4.00;;
39242;SDS011;29823;47.404;8.566;2022-09-09T02:40:28;8.25;;;4.07;;
39242;SDS011;29823;47.404;8.566;2022-09-09T02:42:57;12.65;;;3.70;;
39242;SDS011;29823;47.404;8.566;2022-09-09T02:45:27;6.95;;;3.72;;
39242;SDS011;29823;47.404;8.566;2022-09-09T02:48:03;12.13;;;3.08;;
39242;SDS011;29823;47.404;8.566;2022-09-09T02:50:40;7.75;;;3.15;;
39242;SDS011;29823;47.404;8.566;2022-09-09T02:53:15;8.15;;;3.28;;
39242;SDS011;29823;47.404;8.566;2022-09-09T02:55:45;8.65;;;3.00;;
39242;SDS011;29823;47.404;8.566;2022-09-09T02:58:17;9.60;;;3.53;;
39242;SDS011;29823;47.404;8.566;2022-09-09T03:00:46;7.50;;;2.92;;
39242;SDS011;29823;47.404;8.566;2022-09-09T03:03:15;7.45;;;3.22;;
39242;SDS011;29823;47.404;8.566;2022-09-09T03:05:44;10.00;;;3.10;;
39242;SDS011;29823;47.404;8.566;2022-09-09T03:08:12;7.20;;;2.97;;
39242;SDS011;29823;47.404;8.566;2022-09-09T03:10:40;6.90;;;2.70;;
39242;SDS011;29823;47.404;8.566;2022-09-09T03:13:08;8.57;;;2.60;;
39242;SDS011;29823;47.404;8.566;2022-09-09T03:15:38;7.22;;;2.45;;
39242;SDS011;29823;47.404;8.566;2022-09-09T03:18:06;6.95;;;2.28;;
39242;SDS011;29823;47.404;8.566;2022-09-09T03:20:34;7.70;;;3.00;;
39242;SDS011;29823;47.404;8.566;2022-09-09T03:23:01;6.43;;;2.17;;
39242;SDS011;29823;47.404;8.566;2022-09-09T03:25:29;7.25;;;2.63;;
39242;SDS011;29823;47.404;8.566;2022-09-09T03:27:58;7.45;;;2.58;;
39242;SDS011;29823;47.404;8.566;2022-09-09T03:30:26;6.50;;;2.20;;
39242;SDS011;29823;47.404;8.566;2022-09-09T03:32:56;6.85;;;2.35;;
39242;SDS011;29823;47.404;8.566;2022-09-09T03:35:24;7.13;;;2.25;;
39242;SDS011;29823;47.404;8.566;2022-09-09T03:37:51;10.75;;;1.95;;
39242;SDS011;29823;47.404;8.566;2022-09-09T03:40:21;13.40;;;2.22;;
39242;SDS011;29823;47.404;8.566;2022-09-09T03:42:49;8.50;;;2.20;;
39242;SDS011;29823;47.404;8.566;2022-09-09T03:45:17;6.53;;;2.30;;
39242;SDS011;29823;47.404;8.566;2022-09-09T03:47:45;10.90;;;2.83;;
39242;SDS011;29823;47.404;8.566;2022-09-09T03:50:14;8.98;;;2.58;;
39242;SDS011;29823;47.404;8.566;2022-09-09T03:52:42;8.82;;;2.75;;
39242;SDS011;29823;47.404;8.566;2022-09-09T03:55:09;9.15;;;2.25;;
39242;SDS011;29823;47.404;8.566;2022-09-09T03:57:37;8.25;;;2.40;;
39242;SDS011;29823;47.404;8.566;2022-09-09T04:00:05;5.15;;;1.70;;
39242;SDS011;29823;47.404;8.566;2022-09-09T04:02:34;7.20;;;2.40;;
39242;SDS011;29823;47.404;8.566;2022-09-09T04:05:02;7.82;;;1.70;;
39242;SDS011;29823;47.404;8.566;2022-09-09T04:07:33;3.58;;;1.60;;
39242;SDS011;29823;47.404;8.566;2022-09-09T04:10:01;4.75;;;1.65;;
39242;SDS011;29823;47.404;8.566;2022-09-09T04:12:29;4.63;;;1.60;;
39242;SDS011;29823;47.404;8.566;2022-09-09T04:14:57;6.55;;;1.90;;
39242;SDS011;29823;47.404;8.566;2022-09-09T04:17:24;2.25;;;1.17;;
39242;SDS011;29823;47.404;8.566;2022-09-09T04:19:52;6.50;;;1.42;;
39242;SDS011;29823;47.404;8.566;2022-09-09T04:22:20;4.35;;;1.20;;
39242;SDS011;29823;47.404;8.566;2022-09-09T04:24:49;2.97;;;1.30;;
39242;SDS011;29823;47.404;8.566;2022-09-09T04:27:17;4.90;;;1.48;;
39242;SDS011;29823;47.404;8.566;2022-09-09T04:29:45;3.83;;;1.50;;
39242;SDS011;29823;47.404;8.566;2022-09-09T04:32:13;8.10;;;1.70;;
39242;SDS011;29823;47.404;8.566;2022-09-09T04:34:41;6.38;;;1.50;;
39242;SDS011;29823;47.404;8.566;2022-09-09T04:37:08;6.35;;;1.60;;
39242;SDS011;29823;47.404;8.566;2022-09-09T04:39:36;4.10;;;1.58;;
39242;SDS011;29823;47.404;8.566;2022-09-09T04:42:05;7.45;;;1.85;;
39242;SDS011;29823;47.404;8.566;2022-09-09T04:44:33;7.45;;;1.58;;
39242;SDS011;29823;47.404;8.566;2022-09-09T04:47:02;3.17;;;1.17;;
39242;SDS011;29823;47.404;8.566;2022-09-09T04:49:30;8.52;;;1.67;;
39242;SDS011;29823;47.404;8.566;2022-09-09T04:51:58;7.50;;;1.52;;
39242;SDS011;29823;47.404;8.566;2022-09-09T04:54:25;2.72;;;1.52;;
39242;SDS011;29823;47.404;8.566;2022-09-09T04:56:53;8.23;;;1.77;;
39242;SDS011;29823;47.404;8.566;2022-09-09T04:59:23;5.90;;;1.63;;
39242;SDS011;29823;47.404;8.566;2022-09-09T05:01:51;5.30;;;2.10;;
39242;SDS011;29823;47.404;8.566;2022-09-09T05:04:21;5.35;;;2.00;;
39242;SDS011;29823;47.404;8.566;2022-09-09T05:06:49;3.40;;;1.58;;
39242;SDS011;29823;47.404;8.566;2022-09-09T05:09:17;4.32;;;1.55;;
39242;SDS011;29823;47.404;8.566;2022-09-09T05:11:44;4.82;;;1.60;;
39242;SDS011;29823;47.404;8.566;2022-09-09T05:14:12;6.13;;;1.92;;
39242;SDS011;29823;47.404;8.566;2022-09-09T05:16:42;7.00;;;2.33;;
39242;SDS011;29823;47.404;8.566;2022-09-09T05:19:11;4.13;;;2.15;;
39242;SDS011;29823;47.404;8.566;2022-09-09T05:21:39;5.22;;;2.22;;
39242;SDS011;29823;47.404;8.566;2022-09-09T05:24:07;5.90;;;1.90;;
39242;SDS011;29823;47.404;8.566;2022-09-09T05:26:35;7.60;;;1.73;;
39242;SDS011;29823;47.404;8.566;2022-09-09T05:29:03;4.07;;;1.90;;
39242;SDS011;29823;47.404;8.566;2022-09-09T05:31:31;3.60;;;1.83;;
39242;SDS011;29823;47.404;8.566;2022-09-09T05:34:00;5.40;;;1.67;;
39242;SDS011;29823;47.404;8.566;2022-09-09T05:36:28;4.63;;;1.75;;
39242;SDS011;29823;47.404;8.566;2022-09-09T05:38:56;5.80;;;1.90;;
39242;SDS011;29823;47.404;8.566;2022-09-09T05:41:24;3.33;;;1.70;;
39242;SDS011;29823;47.404;8.566;2022-09-09T05:43:51;4.55;;;1.88;;
39242;SDS011;29823;47.404;8.566;2022-09-09T05:46:20;4.28;;;1.80;;
39242;SDS011;29823;47.404;8.566;2022-09-09T05:48:49;4.80;;;2.00;;
39242;SDS011;29823;47.404;8.566;2022-09-09T05:51:19;6.15;;;2.20;;
39242;SDS011;29823;47.404;8.566;2022-09-09T05:56:18;5.05;;;1.80;;
39242;SDS011;29823;47.404;8.566;2022-09-09T05:58:48;4.40;;;1.70;;
39242;SDS011;29823;47.404;8.566;2022-09-09T06:01:17;7.50;;;2.15;;
39242;SDS011;29823;47.404;8.566;2022-09-09T06:03:47;4.63;;;1.90;;
39242;SDS011;29823;47.404;8.566;2022-09-09T06:06:16;6.50;;;1.90;;
39242;SDS011;29823;47.404;8.566;2022-09-09T06:08:49;6.72;;;1.92;;
39242;SDS011;29823;47.404;8.566;2022-09-09T06:11:19;5.90;;;2.00;;
39242;SDS011;29823;47.404;8.566;2022-09-09T06:13:48;4.55;;;1.80;;
39242;SDS011;29823;47.404;8.566;2022-09-09T06:16:17;5.25;;;1.70;;
39242;SDS011;29823;47.404;8.566;2022-09-09T06:18:46;4.45;;;1.77;;
39242;SDS011;29823;47.404;8.566;2022-09-09T06:21:16;6.15;;;1.60;;
39242;SDS011;29823;47.404;8.566;2022-09-09T06:23:45;2.30;;;1.70;;
39242;SDS011;29823;47.404;8.566;2022-09-09T06:26:16;7.68;;;1.77;;
39242;SDS011;29823;47.404;8.566;2022-09-09T06:28:45;4.15;;;1.80;;
39242;SDS011;29823;47.404;8.566;2022-09-09T06:31:14;8.55;;;1.50;;
39242;SDS011;29823;47.404;8.566;2022-09-09T06:33:43;2.90;;;1.17;;
39242;SDS011;29823;47.404;8.566;2022-09-09T06:36:12;3.88;;;1.35;;
39242;SDS011;29823;47.404;8.566;2022-09-09T06:38:42;8.02;;;1.60;;
39242;SDS011;29823;47.404;8.566;2022-09-09T06:41:10;3.17;;;1.30;;
39242;SDS011;29823;47.404;8.566;2022-09-09T06:43:40;5.47;;;1.27;;
39242;SDS011;29823;47.404;8.566;2022-09-09T06:46:08;6.75;;;1.95;;
39242;SDS011;29823;47.404;8.566;2022-09-09T06:48:38;4.95;;;1.40;;
39242;SDS011;29823;47.404;8.566;2022-09-09T06:51:08;3.40;;;1.42;;
39242;SDS011;29823;47.404;8.566;2022-09-09T06:53:39;3.65;;;1.60;;
39242;SDS011;29823;47.404;8.566;2022-09-09T06:56:17;5.90;;;2.55;;
39242;SDS011;29823;47.404;8.566;2022-09-09T06:58:49;3.55;;;1.35;;
39242;SDS011;29823;47.404;8.566;2022-09-09T07:01:18;3.97;;;1.20;;
39242;SDS011;29823;47.404;8.566;2022-09-09T07:03:48;4.70;;;1.10;;
39242;SDS011;29823;47.404;8.566;2022-09-09T07:06:18;12.07;;;1.40;;
39242;SDS011;29823;47.404;8.566;2022-09-09T07:08:49;5.32;;;1.02;;
39242;SDS011;29823;47.404;8.566;2022-09-09T07:11:22;4.03;;;1.70;;
39242;SDS011;29823;47.404;8.566;2022-09-09T07:13:53;3.72;;;1.60;;
39242;SDS011;29823;47.404;8.566;2022-09-09T07:16:23;4.57;;;1.20;;
39242;SDS011;29823;47.404;8.566;2022-09-09T07:18:51;3.47;;;1.38;;
39242;SDS011;29823;47.404;8.566;2022-09-09T07:21:24;6.00;;;1.73;;
39242;SDS011;29823;47.404;8.566;2022-09-09T07:23:53;4.68;;;1.52;;
39242;SDS011;29823;47.404;8.566;2022-09-09T07:26:22;3.97;;;1.20;;
39242;SDS011;29823;47.404;8.566;2022-09-09T07:28:53;5.05;;;1.35;;
39242;SDS011;29823;47.404;8.566;2022-09-09T07:31:22;4.32;;;1.55;;
39242;SDS011;29823;47.404;8.566;2022-09-09T07:33:52;3.17;;;1.40;;
39242;SDS011;29823;47.404;8.566;2022-09-09T07:36:21;3.38;;;1.63;;
39242;SDS011;29823;47.404;8.566;2022-09-09T07:38:56;8.25;;;1.88;;
39242;SDS011;29823;47.404;8.566;2022-09-09T07:41:25;4.82;;;1.60;;
39242;SDS011;29823;47.404;8.566;2022-09-09T07:43:56;3.70;;;1.45;;
39242;SDS011;29823;47.404;8.566;2022-09-09T07:46:25;5.47;;;1.60;;
39242;SDS011;29823;47.404;8.566;2022-09-09T07:48:54;5.68;;;1.10;;
39242;SDS011;29823;47.404;8.566;2022-09-09T07:51:24;5.55;;;1.77;;
39242;SDS011;29823;47.404;8.566;2022-09-09T07:53:53;9.68;;;0.90;;
39242;SDS011;29823;47.404;8.566;2022-09-09T07:56:24;2.47;;;1.35;;
39242;SDS011;29823;47.404;8.566;2022-09-09T07:58:53;4.68;;;1.00;;
39242;SDS011;29823;47.404;8.566;2022-09-09T08:03:54;2.65;;;0.90;;
39242;SDS011;29823;47.404;8.566;2022-09-09T08:06:25;2.45;;;0.90;;
39242;SDS011;29823;47.404;8.566;2022-09-09T08:08:54;7.97;;;1.25;;
39242;SDS011;29823;47.404;8.566;2022-09-09T08:11:23;6.57;;;3.42;;
39242;SDS011;29823;47.404;8.566;2022-09-09T08:13:51;2.38;;;0.93;;
39242;SDS011;29823;47.404;8.566;2022-09-09T08:16:25;5.85;;;1.90;;
39242;SDS011;29823;47.404;8.566;2022-09-09T08:18:54;2.47;;;1.02;;
39242;SDS011;29823;47.404;8.566;2022-09-09T08:21:22;3.63;;;1.10;;
39242;SDS011;29823;47.404;8.566;2022-09-09T08:26:24;2.38;;;1.10;;
39242;SDS011;29823;47.404;8.566;2022-09-09T08:28:54;5.50;;;1.30;;
39242;SDS011;29823;47.404;8.566;2022-09-09T08:31:26;4.82;;;0.90;;
39242;SDS011;29823;47.404;8.566;2022-09-09T08:33:56;3.13;;;0.70;;
39242;SDS011;29823;47.404;8.566;2022-09-09T08:36:26;3.03;;;1.08;;
39242;SDS011;29823;47.404;8.566;2022-09-09T08:38:56;3.75;;;1.08;;
39242;SDS011;29823;47.404;8.566;2022-09-09T08:41:35;3.13;;;1.00;;
39242;SDS011;29823;47.404;8.566;2022-09-09T08:44:21;3.60;;;1.08;;
39242;SDS011;29823;47.404;8.566;2022-09-09T08:47:00;3.47;;;1.10;;
39242;SDS011;29823;47.404;8.566;2022-09-09T08:49:56;6.20;;;1.15;;
39242;SDS011;29823;47.404;8.566;2022-09-09T08:52:36;3.38;;;1.02;;
39242;SDS011;29823;47.404;8.566;2022-09-09T08:55:12;6.15;;;1.15;;
39242;SDS011;29823;47.404;8.566;2022-09-09T08:57:48;7.75;;;1.20;;
39242;SDS011;29823;47.404;8.566;2022-09-09T09:00:18;6.50;;;1.20;;
39242;SDS011;29823;47.404;8.566;2022-09-09T09:02:51;6.45;;;1.35;;
39242;SDS011;29823;47.404;8.566;2022-09-09T09:05:33;4.30;;;1.20;;
39242;SDS011;29823;47.404;8.566;2022-09-09T09:08:06;5.30;;;1.02;;
39242;SDS011;29823;47.404;8.566;2022-09-09T09:10:44;7.55;;;1.27;;
39242;SDS011;29823;47.404;8.566;2022-09-09T09:13:15;1.90;;;0.82;;
39242;SDS011;29823;47.404;8.566;2022-09-09T09:15:48;7.68;;;1.15;;
39242;SDS011;29823;47.404;8.566;2022-09-09T09:18:22;3.45;;;1.10;;
39242;SDS011;29823;47.404;8.566;2022-09-09T09:20:53;3.85;;;1.20;;
39242;SDS011;29823;47.404;8.566;2022-09-09T09:23:29;4.20;;;1.25;;
39242;SDS011;29823;47.404;8.566;2022-09-09T09:26:06;7.43;;;1.40;;
39242;SDS011;29823;47.404;8.566;2022-09-09T09:28:37;10.60;;;1.25;;
39242;SDS011;29823;47.404;8.566;2022-09-09T09:31:07;6.35;;;1.48;;
39242;SDS011;29823;47.404;8.566;2022-09-09T09:33:41;4.07;;;1.52;;
39242;SDS011;29823;47.404;8.566;2022-09-09T09:36:14;6.10;;;1.42;;
39242;SDS011;29823;47.404;8.566;2022-09-09T09:38:53;4.88;;;1.15;;
39242;SDS011;29823;47.404;8.566;2022-09-09T09:41:42;4.85;;;1.30;;
39242;SDS011;29823;47.404;8.566;2022-09-09T09:44:21;5.63;;;1.50;;
39242;SDS011;29823;47.404;8.566;2022-09-09T09:46:51;5.18;;;1.38;;
39242;SDS011;29823;47.404;8.566;2022-09-09T09:49:20;4.25;;;1.35;;
39242;SDS011;29823;47.404;8.566;2022-09-09T09:51:49;4.90;;;1.40;;
39242;SDS011;29823;47.404;8.566;2022-09-09T09:54:21;4.63;;;1.00;;
39242;SDS011;29823;47.404;8.566;2022-09-09T09:56:54;7.85;;;1.33;;
39242;SDS011;29823;47.404;8.566;2022-09-09T09:59:32;4.85;;;1.13;;
39242;SDS011;29823;47.404;8.566;2022-09-09T10:02:14;3.85;;;1.30;;
39242;SDS011;29823;47.404;8.566;2022-09-09T10:04:46;6.05;;;1.40;;
39242;SDS011;29823;47.404;8.566;2022-09-09T10:07:17;4.40;;;1.17;;
39242;SDS011;29823;47.404;8.566;2022-09-09T10:09:46;2.78;;;1.15;;
39242;SDS011;29823;47.404;8.566;2022-09-09T10:12:22;4.07;;;1.10;;
39242;SDS011;29823;47.404;8.566;2022-09-09T10:15:00;4.10;;;1.25;;
39242;SDS011;29823;47.404;8.566;2022-09-09T10:17:34;5.07;;;1.67;;
39242;SDS011;29823;47.404;8.566;2022-09-09T10:20:18;6.75;;;1.30;;
39242;SDS011;29823;47.404;8.566;2022-09-09T10:22:58;6.07;;;1.52;;
39242;SDS011;29823;47.404;8.566;2022-09-09T10:25:40;5.10;;;1.50;;
39242;SDS011;29823;47.404;8.566;2022-09-09T10:28:28;7.95;;;1.38;;
39242;SDS011;29823;47.404;8.566;2022-09-09T10:31:10;7.82;;;1.17;;
39242;SDS011;29823;47.404;8.566;2022-09-09T10:33:49;5.10;;;1.58;;
39242;SDS011;29823;47.404;8.566;2022-09-09T10:36:21;4.72;;;1.10;;
39242;SDS011;29823;47.404;8.566;2022-09-09T10:38:52;2.17;;;0.70;;
39242;SDS011;29823;47.404;8.566;2022-09-09T10:41:31;6.28;;;1.65;;
39242;SDS011;29823;47.404;8.566;2022-09-09T10:44:13;7.82;;;1.90;;
39242;SDS011;29823;47.404;8.566;2022-09-09T10:46:52;5.82;;;1.58;;
39242;SDS011;29823;47.404;8.566;2022-09-09T10:49:42;5.97;;;1.30;;
39242;SDS011;29823;47.404;8.566;2022-09-09T10:52:28;7.25;;;1.63;;
39242;SDS011;29823;47.404;8.566;2022-09-09T10:55:07;3.15;;;1.00;;
39242;SDS011;29823;47.404;8.566;2022-09-09T10:57:42;5.47;;;1.00;;
39242;SDS011;29823;47.404;8.566;2022-09-09T11:00:15;3.70;;;1.05;;
39242;SDS011;29823;47.404;8.566;2022-09-09T11:02:45;2.05;;;1.00;;
39242;SDS011;29823;47.404;8.566;2022-09-09T11:05:20;4.07;;;1.02;;
39242;SDS011;29823;47.404;8.566;2022-09-09T11:07:51;3.08;;;0.98;;
39242;SDS011;29823;47.404;8.566;2022-09-09T11:10:24;2.45;;;1.08;;
39242;SDS011;29823;47.404;8.566;2022-09-09T11:12:57;6.30;;;1.00;;
39242;SDS011;29823;47.404;8.566;2022-09-09T11:15:31;5.75;;;1.10;;
39242;SDS011;29823;47.404;8.566;2022-09-09T11:18:08;4.50;;;1.20;;
39242;SDS011;29823;47.404;8.566;2022-09-09T11:20:41;3.47;;;1.08;;
39242;SDS011;29823;47.404;8.566;2022-09-09T11:23:12;4.10;;;1.08;;
39242;SDS011;29823;47.404;8.566;2022-09-09T11:25:44;4.25;;;1.35;;
39242;SDS011;29823;47.404;8.566;2022-09-09T11:28:23;5.28;;;1.50;;
39242;SDS011;29823;47.404;8.566;2022-09-09T11:31:10;2.63;;;1.20;;
39242;SDS011;29823;47.404;8.566;2022-09-09T11:33:55;2.28;;;1.10;;
39242;SDS011;29823;47.404;8.566;2022-09-09T11:36:49;2.92;;;0.95;;
39242;SDS011;29823;47.404;8.566;2022-09-09T11:42:28;2.85;;;0.98;;
39242;SDS011;29823;47.404;8.566;2022-09-09T11:44:55;2.00;;;0.82;;
39242;SDS011;29823;47.404;8.566;2022-09-09T11:47:24;6.70;;;1.05;;
39242;SDS011;29823;47.404;8.566;2022-09-09T11:50:06;1.70;;;0.90;;
39242;SDS011;29823;47.404;8.566;2022-09-09T11:52:36;5.93;;;1.30;;
39242;SDS011;29823;47.404;8.566;2022-09-09T11:55:10;4.10;;;1.10;;
39242;SDS011;29823;47.404;8.566;2022-09-09T11:57:56;5.65;;;0.90;;
39242;SDS011;29823;47.404;8.566;2022-09-09T12:00:32;3.92;;;0.77;;
39242;SDS011;29823;47.404;8.566;2022-09-09T12:03:03;2.92;;;0.90;;
39242;SDS011;29823;47.404;8.566;2022-09-09T12:05:35;2.72;;;1.02;;
39242;SDS011;29823;47.404;8.566;2022-09-09T12:08:07;2.25;;;1.10;;
39242;SDS011;29823;47.404;8.566;2022-09-09T12:10:52;2.63;;;0.95;;
39242;SDS011;29823;47.404;8.566;2022-09-09T12:13:22;1.00;;;0.70;;
39242;SDS011;29823;47.404;8.566;2022-09-09T12:15:52;2.45;;;0.80;;
39242;SDS011;29823;47.404;8.566;2022-09-09T12:18:21;6.38;;;0.93;;
39242;SDS011;29823;47.404;8.566;2022-09-09T12:20:53;1.75;;;1.00;;
39242;SDS011;29823;47.404;8.566;2022-09-09T12:23:30;3.05;;;0.88;;
39242;SDS011;29823;47.404;8.566;2022-09-09T12:26:28;1.15;;;0.70;;
39242;SDS011;29823;47.404;8.566;2022-09-09T12:29:04;3.60;;;0.90;;
39242;SDS011;29823;47.404;8.566;2022-09-09T12:31:41;3.30;;;0.90;;
39242;SDS011;29823;47.404;8.566;2022-09-09T12:34:15;3.40;;;1.00;;
39242;SDS011;29823;47.404;8.566;2022-09-09T12:36:45;1.35;;;0.80;;
39242;SDS011;29823;47.404;8.566;2022-09-09T12:39:22;2.55;;;0.80;;
39242;SDS011;29823;47.404;8.566;2022-09-09T12:41:58;2.63;;;0.80;;
39242;SDS011;29823;47.404;8.566;2022-09-09T12:44:26;3.60;;;1.00;;
39242;SDS011;29823;47.404;8.566;2022-09-09T12:46:55;5.85;;;1.00;;
39242;SDS011;29823;47.404;8.566;2022-09-09T12:49:30;2.00;;;0.80;;
39242;SDS011;29823;47.404;8.566;2022-09-09T12:52:02;1.25;;;0.50;;
39242;SDS011;29823;47.404;8.566;2022-09-09T12:54:33;5.55;;;0.90;;
39242;SDS011;29823;47.404;8.566;2022-09-09T12:57:04;2.10;;;0.80;;
39242;SDS011;29823;47.404;8.566;2022-09-09T12:59:36;3.20;;;0.85;;
39242;SDS011;29823;47.404;8.566;2022-09-09T13:02:10;2.70;;;0.98;;
39242;SDS011;29823;47.404;8.566;2022-09-09T13:04:45;4.22;;;1.23;;
39242;SDS011;29823;47.404;8.566;2022-09-09T13:07:13;3.17;;;1.02;;
39242;SDS011;29823;47.404;8.566;2022-09-09T13:09:42;3.78;;;1.10;;
39242;SDS011;29823;47.404;8.566;2022-09-09T13:12:14;6.97;;;1.17;;
39242;SDS011;29823;47.404;8.566;2022-09-09T13:14:45;5.55;;;1.52;;
39242;SDS011;29823;47.404;8.566;2022-09-09T13:19:48;4.68;;;1.77;;
39242;SDS011;29823;47.404;8.566;2022-09-09T13:22:26;3.05;;;1.08;;
39242;SDS011;29823;47.404;8.566;2022-09-09T13:25:00;3.83;;;0.82;;
39242;SDS011;29823;47.404;8.566;2022-09-09T13:27:32;6.13;;;1.23;;
39242;SDS011;29823;47.404;8.566;2022-09-09T13:30:19;3.70;;;1.30;;
39242;SDS011;29823;47.404;8.566;2022-09-09T13:32:59;6.40;;;0.73;;
39242;SDS011;29823;47.404;8.566;2022-09-09T13:35:28;5.28;;;1.17;;
39242;SDS011;29823;47.404;8.566;2022-09-09T13:37:56;5.45;;;1.30;;
39242;SDS011;29823;47.404;8.566;2022-09-09T13:40:26;6.45;;;0.85;;
39242;SDS011;29823;47.404;8.566;2022-09-09T13:42:55;4.25;;;1.08;;
39242;SDS011;29823;47.404;8.566;2022-09-09T13:45:25;2.25;;;1.02;;
39242;SDS011;29823;47.404;8.566;2022-09-09T13:47:54;7.60;;;3.25;;
39242;SDS011;29823;47.404;8.566;2022-09-09T13:50:23;2.97;;;1.15;;
39242;SDS011;29823;47.404;8.566;2022-09-09T13:52:52;6.25;;;1.30;;
39242;SDS011;29823;47.404;8.566;2022-09-09T13:55:24;1.77;;;0.68;;
39242;SDS011;29823;47.404;8.566;2022-09-09T13:57:55;3.03;;;1.63;;
39242;SDS011;29823;47.404;8.566;2022-09-09T14:00:26;3.20;;;0.80;;
39242;SDS011;29823;47.404;8.566;2022-09-09T14:02:56;4.05;;;0.93;;
39242;SDS011;29823;47.404;8.566;2022-09-09T14:05:24;2.30;;;0.88;;
39242;SDS011;29823;47.404;8.566;2022-09-09T14:07:52;6.15;;;0.90;;
39242;SDS011;29823;47.404;8.566;2022-09-09T14:10:19;2.65;;;0.88;;
39242;SDS011;29823;47.404;8.566;2022-09-09T14:12:48;7.68;;;1.02;;
39242;SDS011;29823;47.404;8.566;2022-09-09T14:15:17;2.25;;;0.73;;
39242;SDS011;29823;47.404;8.566;2022-09-09T14:17:46;7.60;;;0.75;;
39242;SDS011;29823;47.404;8.566;2022-09-09T14:20:14;1.88;;;0.68;;
39242;SDS011;29823;47.404;8.566;2022-09-09T14:22:43;4.78;;;0.90;;
39242;SDS011;29823;47.404;8.566;2022-09-09T14:25:11;5.50;;;1.00;;
39242;SDS011;29823;47.404;8.566;2022-09-09T14:27:40;2.78;;;0.77;;
39242;SDS011;29823;47.404;8.566;2022-09-09T14:30:09;2.75;;;1.08;;
39242;SDS011;29823;47.404;8.566;2022-09-09T14:32:38;5.72;;;1.23;;
39242;SDS011;29823;47.404;8.566;2022-09-09T14:35:06;4.22;;;1.00;;
39242;SDS011;29823;47.404;8.566;2022-09-09T14:37:35;3.55;;;1.02;;
39242;SDS011;29823;47.404;8.566;2022-09-09T14:40:03;2.17;;;0.85;;
39242;SDS011;29823;47.404;8.566;2022-09-09T14:42:32;2.58;;;0.70;;
39242;SDS011;29823;47.404;8.566;2022-09-09T14:45:00;5.10;;;1.08;;
39242;SDS011;29823;47.404;8.566;2022-09-09T14:47:27;9.35;;;1.50;;
39242;SDS011;29823;47.404;8.566;2022-09-09T14:49:57;9.07;;;1.15;;
39242;SDS011;29823;47.404;8.566;2022-09-09T14:52:27;3.58;;;0.90;;
39242;SDS011;29823;47.404;8.566;2022-09-09T14:54:55;4.72;;;0.90;;
39242;SDS011;29823;47.404;8.566;2022-09-09T14:57:23;4.57;;;1.00;;
39242;SDS011;29823;47.404;8.566;2022-09-09T14:59:51;7.03;;;1.02;;
39242;SDS011;29823;47.404;8.566;2022-09-09T15:02:19;5.22;;;0.80;;
39242;SDS011;29823;47.404;8.566;2022-09-09T15:04:47;5.30;;;1.02;;
39242;SDS011;29823;47.404;8.566;2022-09-09T15:07:17;4.30;;;0.82;;
39242;SDS011;29823;47.404;8.566;2022-09-09T15:09:45;3.63;;;0.98;;
39242;SDS011;29823;47.404;8.566;2022-09-09T15:12:14;4.20;;;1.08;;
39242;SDS011;29823;47.404;8.566;2022-09-09T15:14:45;4.75;;;1.13;;
39242;SDS011;29823;47.404;8.566;2022-09-09T15:17:13;2.53;;;0.75;;
39242;SDS011;29823;47.404;8.566;2022-09-09T15:19:41;7.60;;;1.23;;
39242;SDS011;29823;47.404;8.566;2022-09-09T15:22:09;6.43;;;1.30;;
39242;SDS011;29823;47.404;8.566;2022-09-09T15:24:38;11.75;;;3.67;;
39242;SDS011;29823;47.404;8.566;2022-09-09T15:27:05;6.80;;;1.40;;
39242;SDS011;29823;47.404;8.566;2022-09-09T15:29:33;8.25;;;1.20;;
39242;SDS011;29823;47.404;8.566;2022-09-09T15:32:01;5.68;;;1.13;;